Terminal Aerodrome Forecast
Issued by NWS Detroit/Pontiac, MI

Home | Current Version | Previous Version | Text Only | Print | Product List | Glossary On
Versions: 1 2 3 4 5 6 7 8 9 10 11 12 13 14 15 16 17 18 19 20 21 22 23 24 25 26 27 28 29
437
FTUS43 KDTX 060200 AAB
TAFDTW
TAF AMD
KDTW 060200Z 0602/0706 25007KT P6SM SCT045 OVC070
     FM060400 28006KT P6SM BKN045 OVC090
     FM060800 26005KT P6SM OVC100
     FM061400 23007KT P6SM BKN070=

USA.gov is the U.S. government's official web portal to all federal, state and local government web resources and services.